sensor_id;sensor_type;location;lat;lon;timestamp;temperature;humidity
24049;DHT22;12250;50.956;4.746;2023-09-19T00:00:34;15.10;99.90
24049;DHT22;12250;50.956;4.746;2023-09-19T00:03:01;15.10;99.90
24049;DHT22;12250;50.956;4.746;2023-09-19T00:05:28;15.00;99.90
24049;DHT22;12250;50.956;4.746;2023-09-19T00:07:55;15.00;99.90
24049;DHT22;12250;50.956;4.746;2023-09-19T00:10:25;15.00;99.90
24049;DHT22;12250;50.956;4.746;2023-09-19T00:12:53;15.00;99.90
24049;DHT22;12250;50.956;4.746;2023-09-19T00:15:24;15.00;99.90
24049;DHT22;12250;50.956;4.746;2023-09-19T00:17:51;14.90;99.90
24049;DHT22;12250;50.956;4.746;2023-09-19T00:20:18;15.00;99.90
24049;DHT22;12250;50.956;4.746;2023-09-19T00:22:44;14.90;99.90
24049;DHT22;12250;50.956;4.746;2023-09-19T00:25:11;14.90;99.90
24049;DHT22;12250;50.956;4.746;2023-09-19T00:27:39;14.90;99.90
24049;DHT22;12250;50.956;4.746;2023-09-19T00:30:06;14.90;99.90
24049;DHT22;12250;50.956;4.746;2023-09-19T00:32:34;15.00;99.90
24049;DHT22;12250;50.956;4.746;2023-09-19T00:35:00;15.00;99.90
24049;DHT22;12250;50.956;4.746;2023-09-19T00:37:25;15.00;99.90
24049;DHT22;12250;50.956;4.746;2023-09-19T00:39:51;15.00;99.90
24049;DHT22;12250;50.956;4.746;2023-09-19T00:42:20;15.10;99.90
24049;DHT22;12250;50.956;4.746;2023-09-19T00:44:49;15.20;99.90
24049;DHT22;12250;50.956;4.746;2023-09-19T00:47:17;15.10;99.90
24049;DHT22;12250;50.956;4.746;2023-09-19T00:49:45;15.10;99.90
24049;DHT22;12250;50.956;4.746;2023-09-19T00:52:16;15.10;99.90
24049;DHT22;12250;50.956;4.746;2023-09-19T00:54:46;15.10;99.90
24049;DHT22;12250;50.956;4.746;2023-09-19T00:57:13;15.10;99.90
24049;DHT22;12250;50.956;4.746;2023-09-19T00:59:41;15.10;99.90
24049;DHT22;12250;50.956;4.746;2023-09-19T01:02:08;15.10;99.90
24049;DHT22;12250;50.956;4.746;2023-09-19T01:04:34;15.10;99.90
24049;DHT22;12250;50.956;4.746;2023-09-19T01:06:59;15.10;99.90
24049;DHT22;12250;50.956;4.746;2023-09-19T01:09:25;15.00;99.90
24049;DHT22;12250;50.956;4.746;2023-09-19T01:11:53;15.10;99.90
24049;DHT22;12250;50.956;4.746;2023-09-19T01:14:34;15.10;99.90
24049;DHT22;12250;50.956;4.746;2023-09-19T01:17:29;15.00;99.90
24049;DHT22;12250;50.956;4.746;2023-09-19T01:22:53;15.00;99.90
24049;DHT22;12250;50.956;4.746;2023-09-19T01:28:45;14.80;99.90
24049;DHT22;12250;50.956;4.746;2023-09-19T01:31:21;14.80;99.90
24049;DHT22;12250;50.956;4.746;2023-09-19T01:34:00;14.70;99.90
24049;DHT22;12250;50.956;4.746;2023-09-19T01:36:36;14.60;99.90
24049;DHT22;12250;50.956;4.746;2023-09-19T01:39:08;14.60;99.90
24049;DHT22;12250;50.956;4.746;2023-09-19T01:47:23;14.50;99.90
24049;DHT22;12250;50.956;4.746;2023-09-19T01:52:57;14.40;99.90
24049;DHT22;12250;50.956;4.746;2023-09-19T01:55:29;14.40;99.90
24049;DHT22;12250;50.956;4.746;2023-09-19T01:58:01;14.40;99.90
24049;DHT22;12250;50.956;4.746;2023-09-19T02:00:33;14.40;99.90
24049;DHT22;12250;50.956;4.746;2023-09-19T02:03:02;14.30;99.90
24049;DHT22;12250;50.956;4.746;2023-09-19T02:05:28;14.30;99.90
24049;DHT22;12250;50.956;4.746;2023-09-19T02:07:54;14.30;99.90
24049;DHT22;12250;50.956;4.746;2023-09-19T02:10:21;14.30;99.90
24049;DHT22;12250;50.956;4.746;2023-09-19T02:12:48;14.30;99.90
24049;DHT22;12250;50.956;4.746;2023-09-19T02:15:14;14.20;99.90
24049;DHT22;12250;50.956;4.746;2023-09-19T02:17:42;14.20;99.90
24049;DHT22;12250;50.956;4.746;2023-09-19T02:20:10;14.20;99.90
24049;DHT22;12250;50.956;4.746;2023-09-19T02:22:36;14.20;99.90
24049;DHT22;12250;50.956;4.746;2023-09-19T02:25:02;14.20;99.90
24049;DHT22;12250;50.956;4.746;2023-09-19T02:27:31;14.20;99.90
24049;DHT22;12250;50.956;4.746;2023-09-19T02:29:56;14.30;99.90
24049;DHT22;12250;50.956;4.746;2023-09-19T02:32:23;14.30;99.90
24049;DHT22;12250;50.956;4.746;2023-09-19T02:34:48;14.30;99.90
24049;DHT22;12250;50.956;4.746;2023-09-19T02:37:18;14.30;99.90
24049;DHT22;12250;50.956;4.746;2023-09-19T02:39:45;14.30;99.90
24049;DHT22;12250;50.956;4.746;2023-09-19T02:42:10;14.40;99.90
24049;DHT22;12250;50.956;4.746;2023-09-19T02:44:36;14.40;99.90
24049;DHT22;12250;50.956;4.746;2023-09-19T02:47:03;14.50;99.90
24049;DHT22;12250;50.956;4.746;2023-09-19T02:49:29;14.50;99.90
24049;DHT22;12250;50.956;4.746;2023-09-19T02:51:55;14.60;99.90
24049;DHT22;12250;50.956;4.746;2023-09-19T02:54:21;14.80;99.90
24049;DHT22;12250;50.956;4.746;2023-09-19T02:56:47;14.90;99.90
24049;DHT22;12250;50.956;4.746;2023-09-19T02:59:13;14.90;99.90
24049;DHT22;12250;50.956;4.746;2023-09-19T03:01:39;15.00;99.90
24049;DHT22;12250;50.956;4.746;2023-09-19T03:04:05;15.10;99.90
24049;DHT22;12250;50.956;4.746;2023-09-19T03:06:37;15.10;99.90
24049;DHT22;12250;50.956;4.746;2023-09-19T03:09:04;15.10;99.90
24049;DHT22;12250;50.956;4.746;2023-09-19T03:11:31;15.10;99.90
24049;DHT22;12250;50.956;4.746;2023-09-19T03:13:57;15.10;99.90
24049;DHT22;12250;50.956;4.746;2023-09-19T03:16:23;15.10;99.90
24049;DHT22;12250;50.956;4.746;2023-09-19T03:18:51;15.20;99.90
24049;DHT22;12250;50.956;4.746;2023-09-19T03:21:16;15.20;99.90
24049;DHT22;12250;50.956;4.746;2023-09-19T03:23:43;15.30;99.90
24049;DHT22;12250;50.956;4.746;2023-09-19T03:26:11;15.30;99.90
24049;DHT22;12250;50.956;4.746;2023-09-19T03:28:38;15.20;99.90
24049;DHT22;12250;50.956;4.746;2023-09-19T03:31:05;15.10;99.90
24049;DHT22;12250;50.956;4.746;2023-09-19T03:33:31;15.10;99.90
24049;DHT22;12250;50.956;4.746;2023-09-19T03:35:58;15.10;99.90
24049;DHT22;12250;50.956;4.746;2023-09-19T03:38:25;14.90;99.90
24049;DHT22;12250;50.956;4.746;2023-09-19T03:40:51;14.90;99.90
24049;DHT22;12250;50.956;4.746;2023-09-19T03:43:17;14.90;99.90
24049;DHT22;12250;50.956;4.746;2023-09-19T03:45:43;14.90;99.90
24049;DHT22;12250;50.956;4.746;2023-09-19T03:48:12;14.90;99.90
24049;DHT22;12250;50.956;4.746;2023-09-19T03:50:38;14.90;99.90
24049;DHT22;12250;50.956;4.746;2023-09-19T03:53:04;15.00;99.90
24049;DHT22;12250;50.956;4.746;2023-09-19T03:55:29;15.10;99.90
24049;DHT22;12250;50.956;4.746;2023-09-19T03:57:56;15.20;99.90
24049;DHT22;12250;50.956;4.746;2023-09-19T04:00:22;15.20;99.90
24049;DHT22;12250;50.956;4.746;2023-09-19T04:02:51;15.30;99.90
24049;DHT22;12250;50.956;4.746;2023-09-19T04:05:17;15.30;99.90
24049;DHT22;12250;50.956;4.746;2023-09-19T04:07:43;15.40;99.90
24049;DHT22;12250;50.956;4.746;2023-09-19T04:10:09;15.40;99.90
24049;DHT22;12250;50.956;4.746;2023-09-19T04:12:37;15.40;99.90
24049;DHT22;12250;50.956;4.746;2023-09-19T04:15:05;15.50;99.90
24049;DHT22;12250;50.956;4.746;2023-09-19T04:17:31;15.40;99.90
24049;DHT22;12250;50.956;4.746;2023-09-19T04:19:59;15.40;99.90
24049;DHT22;12250;50.956;4.746;2023-09-19T04:22:24;15.30;99.90
24049;DHT22;12250;50.956;4.746;2023-09-19T04:24:50;15.20;99.90
24049;DHT22;12250;50.956;4.746;2023-09-19T04:27:16;15.10;99.90
24049;DHT22;12250;50.956;4.746;2023-09-19T04:29:42;15.00;99.90
24049;DHT22;12250;50.956;4.746;2023-09-19T04:32:08;14.90;99.90
24049;DHT22;12250;50.956;4.746;2023-09-19T04:34:35;14.80;99.90
24049;DHT22;12250;50.956;4.746;2023-09-19T04:37:01;14.80;99.90
24049;DHT22;12250;50.956;4.746;2023-09-19T04:39:27;14.80;99.90
24049;DHT22;12250;50.956;4.746;2023-09-19T04:41:53;14.70;99.90
24049;DHT22;12250;50.956;4.746;2023-09-19T04:44:20;14.70;99.90
24049;DHT22;12250;50.956;4.746;2023-09-19T04:46:48;14.60;99.90
24049;DHT22;12250;50.956;4.746;2023-09-19T04:49:14;14.60;99.90
24049;DHT22;12250;50.956;4.746;2023-09-19T04:51:40;14.50;99.90
24049;DHT22;12250;50.956;4.746;2023-09-19T04:54:06;14.50;99.90
24049;DHT22;12250;50.956;4.746;2023-09-19T04:56:32;14.40;99.90
24049;DHT22;12250;50.956;4.746;2023-09-19T04:58:59;14.30;99.90
24049;DHT22;12250;50.956;4.746;2023-09-19T05:01:25;14.40;99.90
24049;DHT22;12250;50.956;4.746;2023-09-19T05:03:51;14.30;99.90
24049;DHT22;12250;50.956;4.746;2023-09-19T05:06:20;14.20;99.90
24049;DHT22;12250;50.956;4.746;2023-09-19T05:08:49;14.20;99.90
24049;DHT22;12250;50.956;4.746;2023-09-19T05:11:18;14.20;99.90
24049;DHT22;12250;50.956;4.746;2023-09-19T05:13:44;14.20;99.90
24049;DHT22;12250;50.956;4.746;2023-09-19T05:16:09;14.10;99.90
24049;DHT22;12250;50.956;4.746;2023-09-19T05:18:36;14.10;99.90
24049;DHT22;12250;50.956;4.746;2023-09-19T05:21:04;14.10;99.90
24049;DHT22;12250;50.956;4.746;2023-09-19T05:23:30;14.10;99.90
24049;DHT22;12250;50.956;4.746;2023-09-19T05:25:56;14.00;99.90
24049;DHT22;12250;50.956;4.746;2023-09-19T05:28:25;14.00;99.90
24049;DHT22;12250;50.956;4.746;2023-09-19T05:30:52;13.90;99.90
24049;DHT22;12250;50.956;4.746;2023-09-19T05:33:19;14.00;99.90
24049;DHT22;12250;50.956;4.746;2023-09-19T05:35:45;14.00;99.90
24049;DHT22;12250;50.956;4.746;2023-09-19T05:38:13;14.00;99.90
24049;DHT22;12250;50.956;4.746;2023-09-19T05:40:40;14.00;99.90
24049;DHT22;12250;50.956;4.746;2023-09-19T05:43:09;14.00;99.90
24049;DHT22;12250;50.956;4.746;2023-09-19T05:45:35;14.10;99.90
24049;DHT22;12250;50.956;4.746;2023-09-19T05:48:09;14.10;99.90
24049;DHT22;12250;50.956;4.746;2023-09-19T05:50:37;14.10;99.90
24049;DHT22;12250;50.956;4.746;2023-09-19T05:53:03;14.10;99.90
24049;DHT22;12250;50.956;4.746;2023-09-19T05:55:30;14.10;99.90
24049;DHT22;12250;50.956;4.746;2023-09-19T05:57:55;14.20;99.90
24049;DHT22;12250;50.956;4.746;2023-09-19T06:00:22;14.20;99.90
24049;DHT22;12250;50.956;4.746;2023-09-19T06:02:55;14.30;99.90
24049;DHT22;12250;50.956;4.746;2023-09-19T06:05:23;14.40;99.90
24049;DHT22;12250;50.956;4.746;2023-09-19T06:07:49;14.50;99.90
24049;DHT22;12250;50.956;4.746;2023-09-19T06:10:16;14.50;99.90
24049;DHT22;12250;50.956;4.746;2023-09-19T06:12:43;14.60;99.90
24049;DHT22;12250;50.956;4.746;2023-09-19T06:15:12;14.70;99.90
24049;DHT22;12250;50.956;4.746;2023-09-19T06:17:47;14.70;99.90
24049;DHT22;12250;50.956;4.746;2023-09-19T06:20:14;14.80;99.90
24049;DHT22;12250;50.956;4.746;2023-09-19T06:22:41;15.00;99.90
24049;DHT22;12250;50.956;4.746;2023-09-19T06:25:11;15.10;99.90
24049;DHT22;12250;50.956;4.746;2023-09-19T06:27:40;15.20;99.90
24049;DHT22;12250;50.956;4.746;2023-09-19T06:30:11;15.10;99.90
24049;DHT22;12250;50.956;4.746;2023-09-19T06:32:37;15.20;99.90
24049;DHT22;12250;50.956;4.746;2023-09-19T06:35:03;15.30;99.90
24049;DHT22;12250;50.956;4.746;2023-09-19T06:37:32;15.40;99.90
24049;DHT22;12250;50.956;4.746;2023-09-19T06:39:59;15.40;99.90
24049;DHT22;12250;50.956;4.746;2023-09-19T06:42:25;15.60;99.90
24049;DHT22;12250;50.956;4.746;2023-09-19T06:44:51;15.70;99.90
24049;DHT22;12250;50.956;4.746;2023-09-19T06:47:17;15.80;99.90
24049;DHT22;12250;50.956;4.746;2023-09-19T06:49:43;15.90;99.90
24049;DHT22;12250;50.956;4.746;2023-09-19T06:52:11;16.10;99.90
24049;DHT22;12250;50.956;4.746;2023-09-19T06:54:37;16.20;99.90
24049;DHT22;12250;50.956;4.746;2023-09-19T06:57:05;16.30;99.90
24049;DHT22;12250;50.956;4.746;2023-09-19T06:59:31;16.30;99.90
24049;DHT22;12250;50.956;4.746;2023-09-19T07:01:58;16.50;99.90
24049;DHT22;12250;50.956;4.746;2023-09-19T07:04:24;16.60;99.90
24049;DHT22;12250;50.956;4.746;2023-09-19T07:06:50;16.70;99.90
24049;DHT22;12250;50.956;4.746;2023-09-19T07:09:16;16.70;99.90
24049;DHT22;12250;50.956;4.746;2023-09-19T07:11:43;16.80;99.90
24049;DHT22;12250;50.956;4.746;2023-09-19T07:14:08;16.90;99.90
24049;DHT22;12250;50.956;4.746;2023-09-19T07:16:37;16.90;99.90
24049;DHT22;12250;50.956;4.746;2023-09-19T07:19:04;17.00;99.90
24049;DHT22;12250;50.956;4.746;2023-09-19T07:21:30;17.10;99.90
24049;DHT22;12250;50.956;4.746;2023-09-19T07:24:02;17.20;99.90
24049;DHT22;12250;50.956;4.746;2023-09-19T07:26:31;17.30;99.90
24049;DHT22;12250;50.956;4.746;2023-09-19T07:28:56;17.50;99.90
24049;DHT22;12250;50.956;4.746;2023-09-19T07:31:23;17.60;99.90
24049;DHT22;12250;50.956;4.746;2023-09-19T07:33:50;17.70;99.90
24049;DHT22;12250;50.956;4.746;2023-09-19T07:36:17;17.90;99.90
24049;DHT22;12250;50.956;4.746;2023-09-19T07:38:42;18.00;99.90
24049;DHT22;12250;50.956;4.746;2023-09-19T07:41:08;18.10;99.90
24049;DHT22;12250;50.956;4.746;2023-09-19T07:43:35;18.20;99.90
24049;DHT22;12250;50.956;4.746;2023-09-19T07:46:08;18.50;99.90
24049;DHT22;12250;50.956;4.746;2023-09-19T07:48:37;18.70;99.90
24049;DHT22;12250;50.956;4.746;2023-09-19T07:51:07;18.90;99.90
24049;DHT22;12250;50.956;4.746;2023-09-19T07:53:34;19.30;99.90
24049;DHT22;12250;50.956;4.746;2023-09-19T07:56:04;19.80;99.90
24049;DHT22;12250;50.956;4.746;2023-09-19T07:58:30;20.30;99.90
24049;DHT22;12250;50.956;4.746;2023-09-19T08:01:01;20.50;99.90
24049;DHT22;12250;50.956;4.746;2023-09-19T08:03:27;21.20;99.90
24049;DHT22;12250;50.956;4.746;2023-09-19T08:05:53;22.20;99.90
24049;DHT22;12250;50.956;4.746;2023-09-19T08:08:18;22.90;99.90
24049;DHT22;12250;50.956;4.746;2023-09-19T08:10:44;23.40;99.90
24049;DHT22;12250;50.956;4.746;2023-09-19T08:13:11;24.10;99.30
24049;DHT22;12250;50.956;4.746;2023-09-19T08:15:43;24.80;97.50
24049;DHT22;12250;50.956;4.746;2023-09-19T08:18:12;25.50;96.10
24049;DHT22;12250;50.956;4.746;2023-09-19T08:20:38;25.50;95.30
24049;DHT22;12250;50.956;4.746;2023-09-19T08:23:04;25.60;94.70
24049;DHT22;12250;50.956;4.746;2023-09-19T08:25:29;25.60;94.10
24049;DHT22;12250;50.956;4.746;2023-09-19T08:27:55;25.60;94.40
24049;DHT22;12250;50.956;4.746;2023-09-19T08:30:24;25.90;93.00
24049;DHT22;12250;50.956;4.746;2023-09-19T08:32:50;26.20;92.20
24049;DHT22;12250;50.956;4.746;2023-09-19T08:35:16;26.70;91.30
24049;DHT22;12250;50.956;4.746;2023-09-19T08:37:45;27.20;90.40
24049;DHT22;12250;50.956;4.746;2023-09-19T08:40:11;26.90;90.40
24049;DHT22;12250;50.956;4.746;2023-09-19T08:42:55;27.50;87.60
24049;DHT22;12250;50.956;4.746;2023-09-19T08:45:22;27.70;87.10
24049;DHT22;12250;50.956;4.746;2023-09-19T08:50:55;27.30;85.80
24049;DHT22;12250;50.956;4.746;2023-09-19T08:53:40;27.30;87.40
24049;DHT22;12250;50.956;4.746;2023-09-19T08:56:10;27.20;87.80
24049;DHT22;12250;50.956;4.746;2023-09-19T08:59:26;27.80;85.60
24049;DHT22;12250;50.956;4.746;2023-09-19T09:01:31;27.90;85.60
24049;DHT22;12250;50.956;4.746;2023-09-19T09:03:58;28.10;84.70
24049;DHT22;12250;50.956;4.746;2023-09-19T09:06:25;28.90;80.30
24049;DHT22;12250;50.956;4.746;2023-09-19T09:08:51;28.90;78.40
24049;DHT22;12250;50.956;4.746;2023-09-19T09:11:18;29.00;78.70
24049;DHT22;12250;50.956;4.746;2023-09-19T09:13:46;28.80;77.40
24049;DHT22;12250;50.956;4.746;2023-09-19T09:16:14;29.00;76.70
24049;DHT22;12250;50.956;4.746;2023-09-19T09:18:44;29.20;76.50
24049;DHT22;12250;50.956;4.746;2023-09-19T09:21:11;29.40;75.10
24049;DHT22;12250;50.956;4.746;2023-09-19T09:23:36;30.00;74.40
24049;DHT22;12250;50.956;4.746;2023-09-19T09:26:02;30.70;73.10
24049;DHT22;12250;50.956;4.746;2023-09-19T09:28:29;30.70;71.10
24049;DHT22;12250;50.956;4.746;2023-09-19T09:30:59;30.30;70.60
24049;DHT22;12250;50.956;4.746;2023-09-19T09:33:25;29.70;71.30
24049;DHT22;12250;50.956;4.746;2023-09-19T09:35:56;29.10;72.10
24049;DHT22;12250;50.956;4.746;2023-09-19T09:38:24;29.00;71.60
24049;DHT22;12250;50.956;4.746;2023-09-19T09:40:54;28.90;71.50
24049;DHT22;12250;50.956;4.746;2023-09-19T09:46:18;28.90;73.40
24049;DHT22;12250;50.956;4.746;2023-09-19T09:48:58;28.60;72.10
24049;DHT22;12250;50.956;4.746;2023-09-19T09:51:44;27.50;73.70
24049;DHT22;12250;50.956;4.746;2023-09-19T09:54:16;27.30;75.80
24049;DHT22;12250;50.956;4.746;2023-09-19T09:56:59;26.60;77.50
24049;DHT22;12250;50.956;4.746;2023-09-19T09:59:45;26.10;78.00
24049;DHT22;12250;50.956;4.746;2023-09-19T10:02:35;25.90;79.30
24049;DHT22;12250;50.956;4.746;2023-09-19T10:05:18;25.70;80.10
24049;DHT22;12250;50.956;4.746;2023-09-19T10:07:54;25.70;82.40
24049;DHT22;12250;50.956;4.746;2023-09-19T10:10:34;25.70;81.50
24049;DHT22;12250;50.956;4.746;2023-09-19T10:13:20;25.40;82.10
24049;DHT22;12250;50.956;4.746;2023-09-19T10:15:51;25.40;83.10
24049;DHT22;12250;50.956;4.746;2023-09-19T10:18:25;25.70;83.70
24049;DHT22;12250;50.956;4.746;2023-09-19T10:20:51;26.40;81.60
24049;DHT22;12250;50.956;4.746;2023-09-19T10:23:19;27.10;79.10
24049;DHT22;12250;50.956;4.746;2023-09-19T10:25:49;27.70;78.00
24049;DHT22;12250;50.956;4.746;2023-09-19T10:28:16;27.90;73.00
24049;DHT22;12250;50.956;4.746;2023-09-19T10:30:48;28.90;73.50
24049;DHT22;12250;50.956;4.746;2023-09-19T10:33:17;30.20;69.90
24049;DHT22;12250;50.956;4.746;2023-09-19T10:35:45;31.40;65.80
24049;DHT22;12250;50.956;4.746;2023-09-19T10:38:18;32.10;60.30
24049;DHT22;12250;50.956;4.746;2023-09-19T10:40:54;32.20;63.70
24049;DHT22;12250;50.956;4.746;2023-09-19T10:43:21;31.70;60.60
24049;DHT22;12250;50.956;4.746;2023-09-19T10:45:48;31.50;63.60
24049;DHT22;12250;50.956;4.746;2023-09-19T10:48:15;31.60;61.90
24049;DHT22;12250;50.956;4.746;2023-09-19T10:53:13;30.30;61.80
24049;DHT22;12250;50.956;4.746;2023-09-19T10:55:41;29.90;65.00
24049;DHT22;12250;50.956;4.746;2023-09-19T10:58:25;29.70;65.40
24049;DHT22;12250;50.956;4.746;2023-09-19T11:03:22;28.40;68.30
24049;DHT22;12250;50.956;4.746;2023-09-19T11:06:03;27.90;70.30
24049;DHT22;12250;50.956;4.746;2023-09-19T11:08:50;27.30;73.10
24049;DHT22;12250;50.956;4.746;2023-09-19T11:30:51;24.90;80.10
24049;DHT22;12250;50.956;4.746;2023-09-19T11:33:28;24.60;83.20
24049;DHT22;12250;50.956;4.746;2023-09-19T11:36:28;24.50;85.40
24049;DHT22;12250;50.956;4.746;2023-09-19T11:39:01;24.50;85.10
24049;DHT22;12250;50.956;4.746;2023-09-19T11:41:40;24.50;86.30
24049;DHT22;12250;50.956;4.746;2023-09-19T11:49:27;24.20;86.20
24049;DHT22;12250;50.956;4.746;2023-09-19T11:51:56;24.20;85.80
24049;DHT22;12250;50.956;4.746;2023-09-19T11:54:23;24.30;87.30
24049;DHT22;12250;50.956;4.746;2023-09-19T11:56:54;24.40;86.10
24049;DHT22;12250;50.956;4.746;2023-09-19T11:59:24;24.60;84.50
24049;DHT22;12250;50.956;4.746;2023-09-19T12:02:05;24.50;84.20
24049;DHT22;12250;50.956;4.746;2023-09-19T12:04:41;24.50;85.60
24049;DHT22;12250;50.956;4.746;2023-09-19T12:07:13;24.10;84.50
24049;DHT22;12250;50.956;4.746;2023-09-19T12:09:43;23.90;86.90
24049;DHT22;12250;50.956;4.746;2023-09-19T12:12:10;23.90;88.70
24049;DHT22;12250;50.956;4.746;2023-09-19T12:14:41;23.60;89.30
24049;DHT22;12250;50.956;4.746;2023-09-19T12:17:08;23.40;89.60
24049;DHT22;12250;50.956;4.746;2023-09-19T12:19:34;23.30;90.40
24049;DHT22;12250;50.956;4.746;2023-09-19T12:22:03;23.10;90.40
24049;DHT22;12250;50.956;4.746;2023-09-19T12:24:34;23.10;89.80
24049;DHT22;12250;50.956;4.746;2023-09-19T12:27:06;22.90;90.70
24049;DHT22;12250;50.956;4.746;2023-09-19T12:29:42;22.90;91.00
24049;DHT22;12250;50.956;4.746;2023-09-19T12:32:08;22.90;90.20
24049;DHT22;12250;50.956;4.746;2023-09-19T12:34:34;23.00;90.70
24049;DHT22;12250;50.956;4.746;2023-09-19T12:37:15;23.10;90.90
24049;DHT22;12250;50.956;4.746;2023-09-19T12:39:48;23.40;90.90
24049;DHT22;12250;50.956;4.746;2023-09-19T12:42:17;23.40;90.20
24049;DHT22;12250;50.956;4.746;2023-09-19T12:44:48;23.50;90.00
24049;DHT22;12250;50.956;4.746;2023-09-19T12:47:18;23.60;90.70
24049;DHT22;12250;50.956;4.746;2023-09-19T12:50:11;23.70;90.70
24049;DHT22;12250;50.956;4.746;2023-09-19T12:52:43;23.70;90.90
24049;DHT22;12250;50.956;4.746;2023-09-19T12:55:31;23.70;90.50
24049;DHT22;12250;50.956;4.746;2023-09-19T12:58:08;23.70;90.40
24049;DHT22;12250;50.956;4.746;2023-09-19T13:00:40;23.90;90.90
24049;DHT22;12250;50.956;4.746;2023-09-19T13:03:26;24.00;90.40
24049;DHT22;12250;50.956;4.746;2023-09-19T13:05:58;24.20;90.00
24049;DHT22;12250;50.956;4.746;2023-09-19T13:11:15;23.70;90.10
24049;DHT22;12250;50.956;4.746;2023-09-19T13:17:02;23.10;91.60
24049;DHT22;12250;50.956;4.746;2023-09-19T13:22:42;23.20;91.30
24049;DHT22;12250;50.956;4.746;2023-09-19T13:25:13;23.00;91.20
24049;DHT22;12250;50.956;4.746;2023-09-19T13:27:50;22.80;91.90
24049;DHT22;12250;50.956;4.746;2023-09-19T13:30:18;22.60;92.60
24049;DHT22;12250;50.956;4.746;2023-09-19T13:32:44;22.60;92.20
24049;DHT22;12250;50.956;4.746;2023-09-19T13:35:12;22.70;92.70
24049;DHT22;12250;50.956;4.746;2023-09-19T13:37:39;22.80;92.40
24049;DHT22;12250;50.956;4.746;2023-09-19T13:40:12;22.80;91.70
24049;DHT22;12250;50.956;4.746;2023-09-19T13:42:38;22.70;93.00
24049;DHT22;12250;50.956;4.746;2023-09-19T13:45:04;22.70;92.80
24049;DHT22;12250;50.956;4.746;2023-09-19T13:47:33;22.60;92.50
24049;DHT22;12250;50.956;4.746;2023-09-19T13:50:02;22.30;93.40
24049;DHT22;12250;50.956;4.746;2023-09-19T13:52:30;22.30;93.30
24049;DHT22;12250;50.956;4.746;2023-09-19T13:54:56;22.30;94.00
24049;DHT22;12250;50.956;4.746;2023-09-19T13:57:23;22.30;93.30
24049;DHT22;12250;50.956;4.746;2023-09-19T13:59:49;22.20;93.10
24049;DHT22;12250;50.956;4.746;2023-09-19T14:02:15;22.30;93.50
24049;DHT22;12250;50.956;4.746;2023-09-19T14:04:44;22.30;93.70
24049;DHT22;12250;50.956;4.746;2023-09-19T14:07:09;22.40;92.90
24049;DHT22;12250;50.956;4.746;2023-09-19T14:09:36;22.50;93.30
24049;DHT22;12250;50.956;4.746;2023-09-19T14:12:02;22.60;93.10
24049;DHT22;12250;50.956;4.746;2023-09-19T14:14:28;22.60;93.30
24049;DHT22;12250;50.956;4.746;2023-09-19T14:16:54;22.90;92.90
24049;DHT22;12250;50.956;4.746;2023-09-19T14:19:20;23.10;92.80
24049;DHT22;12250;50.956;4.746;2023-09-19T14:21:46;23.20;92.20
24049;DHT22;12250;50.956;4.746;2023-09-19T14:24:17;23.20;92.60
24049;DHT22;12250;50.956;4.746;2023-09-19T14:26:43;23.20;93.10
24049;DHT22;12250;50.956;4.746;2023-09-19T14:29:09;23.10;93.00
24049;DHT22;12250;50.956;4.746;2023-09-19T14:31:38;23.00;92.80
24049;DHT22;12250;50.956;4.746;2023-09-19T14:34:06;22.90;93.30
24049;DHT22;12250;50.956;4.746;2023-09-19T14:36:32;23.00;93.00
24049;DHT22;12250;50.956;4.746;2023-09-19T14:38:58;22.80;93.10
24049;DHT22;12250;50.956;4.746;2023-09-19T14:41:24;22.90;93.70
24049;DHT22;12250;50.956;4.746;2023-09-19T14:43:52;23.00;93.10
24049;DHT22;12250;50.956;4.746;2023-09-19T14:46:18;23.30;93.40
24049;DHT22;12250;50.956;4.746;2023-09-19T14:48:45;23.40;92.20
24049;DHT22;12250;50.956;4.746;2023-09-19T14:51:13;23.30;92.60
24049;DHT22;12250;50.956;4.746;2023-09-19T14:53:40;23.40;92.70
24049;DHT22;12250;50.956;4.746;2023-09-19T14:56:10;23.30;92.60
24049;DHT22;12250;50.956;4.746;2023-09-19T14:58:37;23.30;93.00
24049;DHT22;12250;50.956;4.746;2023-09-19T15:01:09;23.20;93.60
24049;DHT22;12250;50.956;4.746;2023-09-19T15:03:39;23.30;93.00
24049;DHT22;12250;50.956;4.746;2023-09-19T15:06:07;23.40;93.20
24049;DHT22;12250;50.956;4.746;2023-09-19T15:08:35;23.40;92.90
24049;DHT22;12250;50.956;4.746;2023-09-19T15:11:09;23.30;92.70
24049;DHT22;12250;50.956;4.746;2023-09-19T15:13:36;23.10;92.70
24049;DHT22;12250;50.956;4.746;2023-09-19T15:16:06;23.00;92.80
24049;DHT22;12250;50.956;4.746;2023-09-19T15:18:36;22.90;93.30
24049;DHT22;12250;50.956;4.746;2023-09-19T15:21:05;22.80;92.90
24049;DHT22;12250;50.956;4.746;2023-09-19T15:23:32;22.50;93.60
24049;DHT22;12250;50.956;4.746;2023-09-19T15:26:00;22.20;93.70
24049;DHT22;12250;50.956;4.746;2023-09-19T15:28:27;22.00;94.30
24049;DHT22;12250;50.956;4.746;2023-09-19T15:31:07;21.80;94.50
24049;DHT22;12250;50.956;4.746;2023-09-19T15:33:33;21.60;95.00
24049;DHT22;12250;50.956;4.746;2023-09-19T15:36:10;21.50;95.30
24049;DHT22;12250;50.956;4.746;2023-09-19T15:41:31;21.60;94.70
24049;DHT22;12250;50.956;4.746;2023-09-19T15:43:58;21.50;95.00
24049;DHT22;12250;50.956;4.746;2023-09-19T15:46:33;21.60;95.40
24049;DHT22;12250;50.956;4.746;2023-09-19T15:49:01;21.40;94.90
24049;DHT22;12250;50.956;4.746;2023-09-19T15:51:27;21.30;95.20
24049;DHT22;12250;50.956;4.746;2023-09-19T15:53:53;21.30;95.50
24049;DHT22;12250;50.956;4.746;2023-09-19T15:56:21;21.30;95.90
24049;DHT22;12250;50.956;4.746;2023-09-19T15:58:53;21.30;96.10
24049;DHT22;12250;50.956;4.746;2023-09-19T16:01:22;21.20;96.40
24049;DHT22;12250;50.956;4.746;2023-09-19T16:03:50;21.10;96.60
24049;DHT22;12250;50.956;4.746;2023-09-19T16:06:22;20.90;96.40
24049;DHT22;12250;50.956;4.746;2023-09-19T16:08:52;20.80;96.80
24049;DHT22;12250;50.956;4.746;2023-09-19T16:11:19;20.70;96.90
24049;DHT22;12250;50.956;4.746;2023-09-19T16:13:47;20.50;97.70
24049;DHT22;12250;50.956;4.746;2023-09-19T16:16:13;20.50;97.60
24049;DHT22;12250;50.956;4.746;2023-09-19T16:21:17;20.30;98.00
24049;DHT22;12250;50.956;4.746;2023-09-19T16:23:46;20.30;98.10
24049;DHT22;12250;50.956;4.746;2023-09-19T16:26:12;20.30;98.50
24049;DHT22;12250;50.956;4.746;2023-09-19T16:28:41;20.30;98.50
24049;DHT22;12250;50.956;4.746;2023-09-19T16:31:08;20.30;98.50
24049;DHT22;12250;50.956;4.746;2023-09-19T16:33:35;20.30;98.50
24049;DHT22;12250;50.956;4.746;2023-09-19T16:36:16;20.20;99.20
24049;DHT22;12250;50.956;4.746;2023-09-19T16:38:45;20.20;98.90
24049;DHT22;12250;50.956;4.746;2023-09-19T16:41:11;20.30;98.80
24049;DHT22;12250;50.956;4.746;2023-09-19T16:43:38;20.30;99.50
24049;DHT22;12250;50.956;4.746;2023-09-19T16:46:06;20.30;99.30